Terminal Aerodrome Forecast
Issued by NWS Charleston, WV

Current Version | Previous Version | Graphics & Text | Print | Product List | Glossary On
Versions: 1 2 3 4 5 6 7 8 9 10 11 12 13 14 15 16 17 18 19 20 21 22 23 24 25 26 27 28
000
FTUS41 KRLX 200200 AAA
TAFBKW
TAF AMD
KBKW 200228Z 2002/2024 17004KT 4SM HZ SCT030 SCT250
     FM200600 19003KT 4SM BR SCT004
      TEMPO 2007/2011 2SM BR BKN004
     FM201200 21004KT 4SM SHRA BR BKN020
     FM201700 27006KT 6SM BR BKN030
     FM202100 26005KT P6SM BKN035=

USA.gov is the U.S. government's official web portal to all federal, state and local government web resources and services.